createdAt,value
2018-12-17T07:30:38.539Z,30.63
2018-12-17T07:33:06.770Z,26.97
2018-12-17T07:35:35.018Z,29.23
2018-12-17T07:38:03.248Z,27.70
2018-12-17T07:40:31.569Z,27.63
2018-12-17T07:43:00.612Z,29.80
2018-12-17T07:45:28.863Z,26.77
2018-12-17T07:47:57.078Z,27.10
2018-12-17T07:50:25.324Z,29.40
2018-12-17T07:52:53.541Z,30.03
2018-12-17T07:55:21.784Z,29.20
2018-12-17T07:57:50.011Z,28.77
2018-12-17T08:00:18.343Z,29.17
2018-12-17T08:02:46.567Z,29.80
2018-12-17T08:05:14.820Z,38.40
2018-12-17T08:07:44.216Z,34.30
2018-12-17T08:10:12.529Z,30.57
2018-12-17T08:12:40.738Z,29.73
2018-12-17T08:15:09.151Z,35.57
2018-12-17T08:17:37.376Z,37.07
2018-12-17T08:20:05.921Z,39.97
2018-12-17T08:22:34.431Z,33.50
2018-12-17T08:25:02.749Z,33.83
2018-12-17T08:27:31.056Z,31.57
2018-12-17T08:30:03.924Z,30.03
2018-12-17T08:32:29.555Z,28.70
2018-12-17T08:34:57.795Z,30.07
2018-12-17T08:37:26.020Z,28.57
2018-12-17T08:39:54.276Z,29.13
2018-12-17T08:42:22.496Z,29.00
2018-12-17T08:44:50.737Z,29.23
2018-12-17T08:47:18.955Z,28.27
2018-12-17T08:49:47.270Z,28.73
2018-12-17T08:52:15.478Z,28.43
2018-12-17T08:54:44.103Z,27.40
2018-12-17T08:57:12.316Z,28.00
2018-12-17T08:59:40.549Z,29.00
2018-12-17T09:02:08.864Z,28.17
2018-12-17T09:04:37.166Z,27.13
2018-12-17T09:07:05.512Z,28.37
2018-12-17T09:09:33.731Z,26.33
2018-12-17T09:12:02.056Z,28.03
2018-12-17T09:14:30.281Z,30.03
2018-12-17T09:16:58.528Z,28.07
2018-12-17T09:19:26.752Z,28.10
2018-12-17T09:21:55.150Z,26.00
2018-12-17T09:24:23.453Z,27.00
2018-12-17T09:26:51.780Z,28.80
2018-12-17T09:29:20.007Z,29.03
2018-12-17T09:31:48.335Z,28.20
2018-12-17T09:34:16.563Z,27.97
2018-12-17T09:36:44.809Z,28.80
2018-12-17T09:39:13.019Z,26.57
2018-12-17T09:41:41.263Z,28.03
2018-12-17T09:44:09.492Z,28.70
2018-12-17T09:46:37.812Z,26.40
2018-12-17T09:49:06.202Z,28.57
2018-12-17T09:51:34.429Z,29.70
2018-12-17T09:54:02.736Z,27.30
2018-12-17T09:56:30.976Z,29.93
2018-12-17T09:58:59.201Z,29.13
2018-12-17T10:01:27.510Z,28.17
2018-12-17T10:03:55.731Z,29.63
2018-12-17T10:06:24.041Z,28.80
2018-12-17T10:08:52.278Z,30.20
2018-12-17T10:11:20.510Z,30.13
2018-12-17T10:13:48.723Z,31.80
2018-12-17T10:16:17.039Z,30.30
2018-12-17T10:18:45.261Z,30.83
2018-12-17T10:21:13.505Z,29.00
2018-12-17T10:23:41.728Z,29.90
2018-12-17T10:26:10.057Z,28.07
2018-12-17T10:28:38.279Z,27.97
2018-12-17T10:31:06.510Z,30.13
2018-12-17T10:33:34.726Z,30.67
2018-12-17T10:36:02.968Z,32.17
2018-12-17T10:38:31.183Z,31.50
2018-12-17T10:40:59.424Z,31.73
2018-12-17T10:43:27.645Z,30.00
2018-12-17T10:45:55.854Z,31.57
2018-12-17T10:48:24.080Z,31.50
2018-12-17T10:50:52.380Z,30.73
2018-12-17T10:53:20.648Z,31.80
2018-12-17T10:55:48.872Z,31.83
2018-12-17T10:58:17.115Z,30.13
2018-12-17T11:00:50.748Z,31.93
2018-12-17T11:03:23.231Z,30.03
2018-12-17T11:05:53.089Z,30.33
2018-12-17T11:08:21.402Z,31.40
2018-12-17T11:10:49.627Z,30.63
2018-12-17T11:13:17.858Z,31.20
2018-12-17T11:15:46.075Z,29.57
2018-12-17T11:18:14.401Z,29.57
2018-12-17T11:20:42.632Z,30.23
2018-12-17T11:23:10.875Z,30.80
2018-12-17T11:25:39.085Z,29.70
2018-12-17T11:28:07.318Z,29.97
2018-12-17T11:30:35.539Z,32.40
2018-12-17T11:33:03.849Z,30.13
2018-12-17T11:35:32.061Z,31.00
2018-12-17T11:38:00.378Z,32.13
2018-12-17T11:40:28.760Z,29.50
2018-12-17T11:42:57.008Z,29.80
2018-12-17T11:45:25.515Z,29.73
2018-12-17T11:47:53.848Z,30.90
2018-12-17T11:50:22.068Z,30.73
2018-12-17T11:52:50.344Z,31.07
2018-12-17T11:55:18.550Z,29.60
2018-12-17T11:58:10.162Z,30.10
2018-12-17T12:00:39.887Z,29.83
2018-12-17T12:03:08.202Z,30.37
2018-12-17T12:05:36.422Z,30.63
2018-12-17T12:08:04.678Z,30.80
2018-12-17T12:10:32.987Z,30.83
2018-12-17T12:13:01.211Z,30.70
2018-12-17T12:15:29.438Z,29.00
2018-12-17T12:17:57.648Z,29.90
2018-12-17T12:20:25.877Z,29.50
2018-12-17T12:22:54.090Z,30.57
2018-12-17T12:25:22.463Z,31.60
2018-12-17T12:27:50.684Z,30.37
2018-12-17T12:30:18.909Z,30.53
2018-12-17T12:32:47.215Z,28.97
2018-12-17T12:35:15.944Z,29.60
2018-12-17T12:37:44.259Z,30.73
2018-12-17T12:40:12.588Z,30.70
2018-12-17T12:42:40.889Z,29.27
2018-12-17T12:45:09.295Z,31.17
2018-12-17T12:47:37.525Z,33.13
2018-12-17T12:50:06.558Z,34.20
2018-12-17T12:52:34.781Z,31.60
2018-12-17T12:55:03.099Z,30.70
2018-12-17T12:57:37.708Z,31.07
2018-12-17T13:00:09.656Z,30.27
2018-12-17T13:02:37.888Z,31.70
2018-12-17T13:05:06.229Z,30.03
2018-12-17T13:07:34.556Z,31.00
2018-12-17T13:10:02.972Z,30.90
2018-12-17T13:12:31.191Z,30.63
2018-12-17T13:14:59.436Z,30.60
2018-12-17T13:17:28.451Z,28.90
2018-12-17T13:19:57.158Z,29.73
2018-12-17T13:22:25.411Z,29.27
2018-12-17T13:24:53.650Z,29.80
2018-12-17T13:27:21.863Z,32.30
2018-12-17T13:29:50.187Z,30.90
2018-12-17T13:32:18.425Z,30.47
2018-12-17T13:34:46.669Z,30.63
2018-12-17T13:37:14.892Z,31.13
2018-12-17T13:39:43.106Z,28.73
2018-12-17T13:42:11.344Z,28.73
2018-12-17T13:44:39.613Z,29.30
2018-12-17T13:47:07.928Z,30.47
2018-12-17T13:49:36.152Z,29.83
2018-12-17T13:52:09.711Z,31.07
2018-12-17T13:54:37.955Z,31.00
2018-12-17T13:57:06.198Z,30.60
2018-12-17T13:59:34.424Z,30.43
2018-12-17T14:02:02.657Z,30.77
2018-12-17T14:04:30.875Z,32.67
2018-12-17T14:06:59.144Z,29.93
2018-12-17T14:09:28.213Z,32.60
2018-12-17T14:11:56.444Z,31.47
2018-12-17T14:14:24.674Z,32.90
2018-12-17T14:16:58.438Z,30.07
2018-12-17T14:19:26.658Z,30.90
2018-12-17T14:21:59.547Z,31.63
2018-12-17T14:24:27.771Z,29.60
2018-12-17T14:26:56.011Z,30.60
2018-12-17T14:29:24.235Z,29.77
2018-12-17T14:31:52.577Z,29.17
2018-12-17T14:34:20.802Z,30.63
2018-12-17T14:36:49.038Z,29.53
2018-12-17T14:39:17.335Z,31.73
2018-12-17T14:41:45.563Z,31.40
2018-12-17T14:44:19.322Z,30.90
2018-12-17T14:46:53.076Z,31.10
2018-12-17T14:49:21.293Z,30.10
2018-12-17T14:51:49.541Z,30.67
2018-12-17T14:54:17.751Z,30.30
2018-12-17T14:56:45.977Z,30.17
2018-12-17T14:59:14.196Z,30.07
2018-12-17T15:01:42.442Z,31.03
2018-12-17T15:04:10.659Z,28.90
2018-12-17T15:06:39.064Z,29.90
2018-12-17T15:09:07.715Z,30.37
2018-12-17T15:11:36.022Z,30.77
2018-12-17T15:14:04.344Z,29.57
2018-12-17T15:16:32.570Z,31.37
2018-12-17T15:19:00.819Z,31.23
2018-12-17T15:21:29.039Z,32.30
2018-12-17T15:23:57.407Z,30.90
2018-12-17T15:26:25.810Z,31.30
2018-12-17T15:28:54.046Z,31.40
2018-12-17T15:31:22.266Z,31.37
2018-12-17T15:33:50.618Z,32.80
2018-12-17T15:36:18.839Z,31.47
2018-12-17T15:38:47.066Z,31.27
2018-12-17T15:41:15.287Z,31.40
2018-12-17T15:43:43.522Z,32.47
2018-12-17T15:46:11.738Z,31.50
2018-12-17T15:48:39.970Z,30.43
2018-12-17T15:51:15.011Z,32.70
2018-12-17T15:53:43.240Z,31.90
2018-12-17T15:56:11.455Z,32.30
2018-12-17T15:58:39.686Z,33.53
2018-12-17T16:01:07.904Z,32.60
2018-12-17T16:03:36.145Z,32.87
2018-12-17T16:06:04.456Z,32.17
2018-12-17T16:08:32.715Z,31.00
2018-12-17T16:11:01.005Z,32.23
2018-12-17T16:13:29.337Z,32.30
2018-12-17T16:15:57.636Z,32.60
2018-12-17T16:18:25.954Z,32.33
2018-12-17T16:20:54.176Z,36.10
2018-12-17T16:23:22.417Z,34.77
2018-12-17T16:25:50.725Z,33.37
2018-12-17T16:28:18.955Z,32.43
2018-12-17T16:30:47.187Z,33.57
2018-12-17T16:33:15.425Z,32.30
2018-12-17T16:35:43.643Z,32.83
2018-12-17T16:38:11.888Z,32.23
2018-12-17T16:40:40.188Z,29.93
2018-12-17T16:43:08.415Z,31.83
2018-12-17T16:45:36.738Z,31.47
2018-12-17T16:48:05.127Z,31.07
2018-12-17T16:50:33.445Z,31.23
2018-12-17T16:53:01.668Z,30.70
2018-12-17T16:55:29.913Z,30.83
2018-12-17T16:57:58.139Z,29.37
2018-12-17T17:00:26.391Z,30.03
2018-12-17T17:02:54.616Z,30.43
2018-12-17T17:05:22.863Z,31.13
2018-12-17T17:07:51.103Z,29.73
2018-12-17T17:10:19.342Z,29.57
2018-12-17T17:12:47.602Z,29.30
2018-12-17T17:15:15.855Z,29.00
2018-12-17T17:17:44.079Z,28.90
2018-12-17T17:20:12.404Z,28.13
2018-12-17T17:22:40.636Z,28.13
2018-12-17T17:25:09.064Z,30.30
2018-12-17T17:27:37.460Z,30.73
2018-12-17T17:30:06.490Z,30.43
2018-12-17T17:32:34.715Z,37.33
2018-12-17T17:35:03.042Z,36.17
2018-12-17T17:37:31.334Z,37.27
2018-12-17T17:39:59.563Z,32.97
2018-12-17T17:42:27.823Z,30.93
2018-12-17T17:44:56.042Z,31.50
2018-12-17T17:47:24.275Z,32.13
2018-12-17T17:49:52.497Z,31.67
2018-12-17T17:52:20.743Z,33.43
2018-12-17T17:54:48.959Z,31.20
2018-12-17T17:57:17.196Z,33.73
2018-12-17T17:59:45.507Z,39.43
2018-12-17T18:02:18.695Z,35.13
2018-12-17T18:04:44.065Z,35.17
2018-12-17T18:07:12.337Z,31.43
2018-12-17T18:09:40.558Z,29.00
2018-12-17T18:12:08.810Z,29.97
2018-12-17T18:14:37.042Z,30.83
2018-12-17T18:17:05.274Z,31.00
2018-12-17T18:19:33.488Z,37.17
2018-12-17T18:22:01.810Z,37.23
2018-12-17T18:24:30.166Z,32.73
2018-12-17T18:26:58.408Z,33.33
2018-12-17T18:29:26.636Z,31.13
2018-12-17T18:31:54.868Z,29.73
2018-12-17T18:34:23.090Z,32.73
2018-12-17T18:36:51.487Z,36.87
2018-12-17T18:39:20.069Z,34.23
2018-12-17T18:41:48.469Z,33.00
2018-12-17T18:44:16.692Z,31.27
2018-12-17T18:46:44.937Z,31.17
2018-12-17T18:49:13.248Z,29.87
2018-12-17T18:51:41.472Z,29.23
2018-12-17T18:54:09.714Z,33.27
2018-12-17T18:56:37.940Z,30.50
2018-12-17T18:59:06.201Z,33.00
2018-12-17T19:01:34.504Z,35.40
2018-12-17T19:04:02.748Z,34.07
2018-12-17T19:06:30.963Z,32.77
2018-12-17T19:08:59.304Z,32.80
2018-12-17T19:11:27.519Z,33.57
2018-12-17T19:13:55.750Z,35.53
2018-12-17T19:16:23.976Z,36.03
2018-12-17T19:18:52.229Z,35.80
2018-12-17T19:21:20.547Z,32.63
2018-12-17T19:23:48.875Z,30.90
2018-12-17T19:26:17.116Z,31.13
2018-12-17T19:28:45.366Z,30.57
2018-12-17T19:31:13.573Z,29.07
2018-12-17T19:33:41.815Z,29.87
2018-12-17T19:36:10.040Z,31.03
2018-12-17T19:38:38.280Z,31.07
2018-12-17T19:41:06.504Z,30.07
2018-12-17T19:43:34.753Z,30.27
2018-12-17T19:46:03.128Z,32.37
2018-12-17T19:48:31.371Z,33.07
2018-12-17T19:50:59.591Z,31.80
2018-12-17T19:53:27.825Z,33.67
2018-12-17T19:55:56.045Z,32.53
2018-12-17T19:58:24.370Z,31.90
2018-12-17T20:00:52.596Z,31.33
2018-12-17T20:03:21.032Z,31.37
2018-12-17T20:05:49.251Z,32.83
2018-12-17T20:08:17.496Z,31.33
2018-12-17T20:10:45.815Z,32.07
2018-12-17T20:13:14.039Z,30.97
2018-12-17T20:15:42.280Z,32.87
2018-12-17T20:18:10.583Z,32.10
2018-12-17T20:20:38.823Z,32.30
2018-12-17T20:23:07.039Z,33.67
2018-12-17T20:25:35.349Z,34.60
2018-12-17T20:28:03.658Z,31.37
2018-12-17T20:30:31.912Z,31.63
2018-12-17T20:33:00.137Z,33.47
2018-12-17T20:35:28.445Z,33.03
2018-12-17T20:37:56.755Z,30.77
2018-12-17T20:40:24.996Z,32.90
2018-12-17T20:42:53.308Z,31.60
2018-12-17T20:45:21.618Z,30.83
2018-12-17T20:47:49.927Z,31.00
2018-12-17T20:50:18.171Z,33.27
2018-12-17T20:52:46.378Z,33.70
2018-12-17T20:55:14.598Z,32.47
2018-12-17T20:57:42.817Z,32.53
2018-12-17T21:00:11.147Z,33.63
2018-12-17T21:02:39.366Z,32.30
2018-12-17T21:05:07.691Z,34.33
2018-12-17T21:07:36.038Z,33.47
2018-12-17T21:10:04.958Z,34.90
2018-12-17T21:12:33.174Z,32.53
2018-12-17T21:15:01.470Z,36.47
2018-12-17T21:17:31.067Z,37.33
2018-12-17T21:19:59.524Z,48.80
2018-12-17T21:22:27.763Z,47.93
2018-12-17T21:24:56.028Z,45.10
2018-12-17T21:27:24.355Z,45.40
2018-12-17T21:29:52.565Z,34.20
2018-12-17T21:32:20.804Z,33.53
2018-12-17T21:34:49.035Z,32.93
2018-12-17T21:37:17.263Z,32.57
2018-12-17T21:39:45.487Z,33.97
2018-12-17T21:42:13.723Z,31.27
